sensor_id;sensor_type;location;lat;lon;timestamp;temperature;humidity
64638;HTU21D;51049;45.046;38.950;2022-12-10T00:01:26;6.71;67.72
64638;HTU21D;51049;45.046;38.950;2022-12-10T00:03:55;6.65;67.73
64638;HTU21D;51049;45.046;38.950;2022-12-10T00:06:23;6.60;67.77
64638;HTU21D;51049;45.046;38.950;2022-12-10T00:08:50;6.54;67.79
64638;HTU21D;51049;45.046;38.950;2022-12-10T00:11:18;6.53;67.84
64638;HTU21D;51049;45.046;38.950;2022-12-10T00:13:45;6.50;67.87
64638;HTU21D;51049;45.046;38.950;2022-12-10T00:16:16;6.49;67.89
64638;HTU21D;51049;45.046;38.950;2022-12-10T00:18:42;6.51;67.89
64638;HTU21D;51049;45.046;38.950;2022-12-10T00:21:15;6.55;67.88
64638;HTU21D;51049;45.046;38.950;2022-12-10T00:23:42;6.59;67.81
64638;HTU21D;51049;45.046;38.950;2022-12-10T00:26:11;6.63;67.78
64638;HTU21D;51049;45.046;38.950;2022-12-10T00:28:38;6.67;67.74
64638;HTU21D;51049;45.046;38.950;2022-12-10T00:31:09;6.72;67.69
64638;HTU21D;51049;45.046;38.950;2022-12-10T00:33:36;6.79;67.65
64638;HTU21D;51049;45.046;38.950;2022-12-10T00:36:05;6.83;67.61
64638;HTU21D;51049;45.046;38.950;2022-12-10T00:38:31;6.88;67.56
64638;HTU21D;51049;45.046;38.950;2022-12-10T00:40:57;6.91;67.55
64638;HTU21D;51049;45.046;38.950;2022-12-10T00:43:24;6.95;67.52
64638;HTU21D;51049;45.046;38.950;2022-12-10T00:45:50;6.98;67.52
64638;HTU21D;51049;45.046;38.950;2022-12-10T00:48:16;7.02;67.52
64638;HTU21D;51049;45.046;38.950;2022-12-10T00:50:42;7.05;67.52
64638;HTU21D;51049;45.046;38.950;2022-12-10T00:53:08;7.09;67.51
64638;HTU21D;51049;45.046;38.950;2022-12-10T00:55:34;7.12;67.51
64638;HTU21D;51049;45.046;38.950;2022-12-10T00:58:00;7.15;67.52
64638;HTU21D;51049;45.046;38.950;2022-12-10T01:00:26;7.16;67.52
64638;HTU21D;51049;45.046;38.950;2022-12-10T01:02:53;7.20;67.53
64638;HTU21D;51049;45.046;38.950;2022-12-10T01:05:19;7.24;67.52
64638;HTU21D;51049;45.046;38.950;2022-12-10T01:07:49;7.25;67.53
64638;HTU21D;51049;45.046;38.950;2022-12-10T01:10:15;7.27;67.54
64638;HTU21D;51049;45.046;38.950;2022-12-10T01:12:42;7.29;67.55
64638;HTU21D;51049;45.046;38.950;2022-12-10T01:15:08;7.32;67.56
64638;HTU21D;51049;45.046;38.950;2022-12-10T01:17:35;7.33;67.58
64638;HTU21D;51049;45.046;38.950;2022-12-10T01:20:01;7.37;67.59
64638;HTU21D;51049;45.046;38.950;2022-12-10T01:22:27;7.40;67.60
64638;HTU21D;51049;45.046;38.950;2022-12-10T01:24:53;7.43;67.60
64638;HTU21D;51049;45.046;38.950;2022-12-10T01:27:19;7.44;67.61
64638;HTU21D;51049;45.046;38.950;2022-12-10T01:29:45;7.47;67.61
64638;HTU21D;51049;45.046;38.950;2022-12-10T01:32:11;7.50;67.62
64638;HTU21D;51049;45.046;38.950;2022-12-10T01:34:38;7.54;67.63
64638;HTU21D;51049;45.046;38.950;2022-12-10T01:37:04;7.56;67.64
64638;HTU21D;51049;45.046;38.950;2022-12-10T01:39:31;7.59;67.65
64638;HTU21D;51049;45.046;38.950;2022-12-10T01:41:59;7.60;67.66
64638;HTU21D;51049;45.046;38.950;2022-12-10T01:46:57;7.67;67.68
64638;HTU21D;51049;45.046;38.950;2022-12-10T01:49:35;7.69;67.68
64638;HTU21D;51049;45.046;38.950;2022-12-10T01:52:03;7.70;67.68
64638;HTU21D;51049;45.046;38.950;2022-12-10T01:54:32;7.72;67.68
64638;HTU21D;51049;45.046;38.950;2022-12-10T01:57:05;7.74;67.70
64638;HTU21D;51049;45.046;38.950;2022-12-10T01:59:32;7.75;67.72
64638;HTU21D;51049;45.046;38.950;2022-12-10T02:05:09;7.81;67.79
64638;HTU21D;51049;45.046;38.950;2022-12-10T02:13:39;7.86;67.81
64638;HTU21D;51049;45.046;38.950;2022-12-10T02:16:14;7.89;67.82
64638;HTU21D;51049;45.046;38.950;2022-12-10T02:19:06;7.92;67.81
64638;HTU21D;51049;45.046;38.950;2022-12-10T02:21:33;7.97;67.79
64638;HTU21D;51049;45.046;38.950;2022-12-10T02:24:03;7.98;67.72
64638;HTU21D;51049;45.046;38.950;2022-12-10T02:29:16;8.00;67.74
64638;HTU21D;51049;45.046;38.950;2022-12-10T02:31:51;8.02;67.75
64638;HTU21D;51049;45.046;38.950;2022-12-10T02:34:22;8.04;67.76
64638;HTU21D;51049;45.046;38.950;2022-12-10T02:36:51;8.04;67.79
64638;HTU21D;51049;45.046;38.950;2022-12-10T02:39:26;8.05;67.81
64638;HTU21D;51049;45.046;38.950;2022-12-10T02:41:58;8.05;67.83
64638;HTU21D;51049;45.046;38.950;2022-12-10T02:44:28;8.06;67.87
64638;HTU21D;51049;45.046;38.950;2022-12-10T02:46:58;8.07;67.89
64638;HTU21D;51049;45.046;38.950;2022-12-10T02:49:31;8.06;67.92
64638;HTU21D;51049;45.046;38.950;2022-12-10T02:52:06;8.07;67.97
64638;HTU21D;51049;45.046;38.950;2022-12-10T02:54:49;8.07;67.99
64638;HTU21D;51049;45.046;38.950;2022-12-10T02:57:28;8.07;68.02
64638;HTU21D;51049;45.046;38.950;2022-12-10T03:05:56;8.08;68.07
64638;HTU21D;51049;45.046;38.950;2022-12-10T03:08:34;8.11;68.08
64638;HTU21D;51049;45.046;38.950;2022-12-10T03:11:21;8.11;68.10
64638;HTU21D;51049;45.046;38.950;2022-12-10T03:16:17;8.12;68.10
64638;HTU21D;51049;45.046;38.950;2022-12-10T03:18:48;8.11;68.14
64638;HTU21D;51049;45.046;38.950;2022-12-10T03:21:16;8.12;68.17
64638;HTU21D;51049;45.046;38.950;2022-12-10T03:23:44;8.14;68.18
64638;HTU21D;51049;45.046;38.950;2022-12-10T03:26:11;8.15;68.21
64638;HTU21D;51049;45.046;38.950;2022-12-10T03:28:42;8.14;68.25
64638;HTU21D;51049;45.046;38.950;2022-12-10T03:31:14;8.14;68.26
64638;HTU21D;51049;45.046;38.950;2022-12-10T03:33:41;8.15;68.29
64638;HTU21D;51049;45.046;38.950;2022-12-10T03:36:08;8.16;68.32
64638;HTU21D;51049;45.046;38.950;2022-12-10T03:38:36;8.18;68.34
64638;HTU21D;51049;45.046;38.950;2022-12-10T03:41:04;8.19;68.34
64638;HTU21D;51049;45.046;38.950;2022-12-10T03:43:30;8.21;68.36
64638;HTU21D;51049;45.046;38.950;2022-12-10T03:45:56;8.22;68.35
64638;HTU21D;51049;45.046;38.950;2022-12-10T03:48:22;8.22;68.33
64638;HTU21D;51049;45.046;38.950;2022-12-10T03:50:48;8.22;68.33
64638;HTU21D;51049;45.046;38.950;2022-12-10T03:53:15;8.22;68.34
64638;HTU21D;51049;45.046;38.950;2022-12-10T03:55:41;8.20;68.36
64638;HTU21D;51049;45.046;38.950;2022-12-10T03:58:07;8.19;68.39
64638;HTU21D;51049;45.046;38.950;2022-12-10T04:00:35;8.16;68.42
64638;HTU21D;51049;45.046;38.950;2022-12-10T04:03:01;8.15;68.45
64638;HTU21D;51049;45.046;38.950;2022-12-10T04:05:27;8.14;68.48
64638;HTU21D;51049;45.046;38.950;2022-12-10T04:07:53;8.14;68.52
64638;HTU21D;51049;45.046;38.950;2022-12-10T04:10:19;8.13;68.54
64638;HTU21D;51049;45.046;38.950;2022-12-10T04:12:45;8.13;68.56
64638;HTU21D;51049;45.046;38.950;2022-12-10T04:15:31;8.13;68.58
64638;HTU21D;51049;45.046;38.950;2022-12-10T04:18:16;8.12;68.60
64638;HTU21D;51049;45.046;38.950;2022-12-10T04:20:42;8.13;68.64
64638;HTU21D;51049;45.046;38.950;2022-12-10T04:23:27;8.14;68.67
64638;HTU21D;51049;45.046;38.950;2022-12-10T04:26:11;8.15;68.68
64638;HTU21D;51049;45.046;38.950;2022-12-10T04:28:56;8.16;68.70
64638;HTU21D;51049;45.046;38.950;2022-12-10T04:31:22;8.16;68.71
64638;HTU21D;51049;45.046;38.950;2022-12-10T04:33:48;8.17;68.74
64638;HTU21D;51049;45.046;38.950;2022-12-10T04:36:14;8.16;68.75
64638;HTU21D;51049;45.046;38.950;2022-12-10T04:38:40;8.13;68.76
64638;HTU21D;51049;45.046;38.950;2022-12-10T04:41:06;8.12;68.78
64638;HTU21D;51049;45.046;38.950;2022-12-10T04:43:42;8.06;68.78
64638;HTU21D;51049;45.046;38.950;2022-12-10T04:46:11;8.02;68.83
64638;HTU21D;51049;45.046;38.950;2022-12-10T04:48:41;7.98;68.85
64638;HTU21D;51049;45.046;38.950;2022-12-10T04:51:10;7.92;68.87
64638;HTU21D;51049;45.046;38.950;2022-12-10T04:53:45;7.87;68.91
64638;HTU21D;51049;45.046;38.950;2022-12-10T04:56:15;7.85;68.96
64638;HTU21D;51049;45.046;38.950;2022-12-10T04:59:00;7.82;68.95
64638;HTU21D;51049;45.046;38.950;2022-12-10T05:01:38;7.76;68.94
64638;HTU21D;51049;45.046;38.950;2022-12-10T05:04:11;7.73;68.94
64638;HTU21D;51049;45.046;38.950;2022-12-10T05:06:48;7.72;68.94
64638;HTU21D;51049;45.046;38.950;2022-12-10T05:09:30;7.69;68.91
64638;HTU21D;51049;45.046;38.950;2022-12-10T05:12:24;7.69;68.91
64638;HTU21D;51049;45.046;38.950;2022-12-10T05:14:59;7.67;68.90
64638;HTU21D;51049;45.046;38.950;2022-12-10T05:17:46;7.65;68.89
64638;HTU21D;51049;45.046;38.950;2022-12-10T05:20:23;7.64;68.86
64638;HTU21D;51049;45.046;38.950;2022-12-10T05:23:09;7.65;68.85
64638;HTU21D;51049;45.046;38.950;2022-12-10T05:26:22;7.67;68.86
64638;HTU21D;51049;45.046;38.950;2022-12-10T05:28:53;7.69;68.85
64638;HTU21D;51049;45.046;38.950;2022-12-10T05:31:28;7.73;68.87
64638;HTU21D;51049;45.046;38.950;2022-12-10T05:34:08;7.77;68.84
64638;HTU21D;51049;45.046;38.950;2022-12-10T05:36:53;7.81;68.81
64638;HTU21D;51049;45.046;38.950;2022-12-10T05:39:28;7.85;68.80
64638;HTU21D;51049;45.046;38.950;2022-12-10T05:41:57;7.92;68.76
64638;HTU21D;51049;45.046;38.950;2022-12-10T05:44:42;7.97;68.73
64638;HTU21D;51049;45.046;38.950;2022-12-10T05:47:11;8.05;68.71
64638;HTU21D;51049;45.046;38.950;2022-12-10T05:49:44;8.13;68.68
64638;HTU21D;51049;45.046;38.950;2022-12-10T05:52:22;8.20;68.64
64638;HTU21D;51049;45.046;38.950;2022-12-10T05:55:01;8.30;68.59
64638;HTU21D;51049;45.046;38.950;2022-12-10T05:57:43;8.38;68.55
64638;HTU21D;51049;45.046;38.950;2022-12-10T06:00:38;8.48;68.50
64638;HTU21D;51049;45.046;38.950;2022-12-10T06:03:52;8.59;68.47
64638;HTU21D;51049;45.046;38.950;2022-12-10T06:07:40;8.76;68.35
64638;HTU21D;51049;45.046;38.950;2022-12-10T06:13:44;9.06;68.13
64638;HTU21D;51049;45.046;38.950;2022-12-10T06:24:27;9.53;67.83
64638;HTU21D;51049;45.046;38.950;2022-12-10T06:27:59;9.65;67.78
64638;HTU21D;51049;45.046;38.950;2022-12-10T06:34:53;9.90;67.70
64638;HTU21D;51049;45.046;38.950;2022-12-10T06:38:04;10.00;67.65
64638;HTU21D;51049;45.046;38.950;2022-12-10T06:40:53;10.10;67.64
64638;HTU21D;51049;45.046;38.950;2022-12-10T06:43:21;10.20;67.65
64638;HTU21D;51049;45.046;38.950;2022-12-10T06:45:51;10.29;67.60
64638;HTU21D;51049;45.046;38.950;2022-12-10T06:48:20;10.40;67.56
64638;HTU21D;51049;45.046;38.950;2022-12-10T06:50:50;10.52;67.49
64638;HTU21D;51049;45.046;38.950;2022-12-10T06:53:30;10.58;67.43
64638;HTU21D;51049;45.046;38.950;2022-12-10T07:15:43;10.85;67.31
64638;HTU21D;51049;45.046;38.950;2022-12-10T07:31:09;11.19;67.10
64638;HTU21D;51049;45.046;38.950;2022-12-10T07:37:58;11.38;67.01
64638;HTU21D;51049;45.046;38.950;2022-12-10T07:41:16;11.44;66.99
64638;HTU21D;51049;45.046;38.950;2022-12-10T07:51:15;11.75;66.88
64638;HTU21D;51049;45.046;38.950;2022-12-10T07:54:09;11.84;66.78
64638;HTU21D;51049;45.046;38.950;2022-12-10T07:57:15;11.88;66.71
64638;HTU21D;51049;45.046;38.950;2022-12-10T07:59:44;11.92;66.72
64638;HTU21D;51049;45.046;38.950;2022-12-10T08:02:11;11.99;66.71
64638;HTU21D;51049;45.046;38.950;2022-12-10T08:04:41;12.08;66.64
64638;HTU21D;51049;45.046;38.950;2022-12-10T08:07:29;12.16;66.59
64638;HTU21D;51049;45.046;38.950;2022-12-10T08:10:12;12.28;66.51
64638;HTU21D;51049;45.046;38.950;2022-12-10T08:12:50;12.40;66.44
64638;HTU21D;51049;45.046;38.950;2022-12-10T08:15:43;12.53;66.26
64638;HTU21D;51049;45.046;38.950;2022-12-10T08:18:12;12.64;66.17
64638;HTU21D;51049;45.046;38.950;2022-12-10T08:20:44;12.73;66.11
64638;HTU21D;51049;45.046;38.950;2022-12-10T08:23:23;12.79;66.07
64638;HTU21D;51049;45.046;38.950;2022-12-10T08:26:36;12.89;66.06
64638;HTU21D;51049;45.046;38.950;2022-12-10T08:29:45;12.99;66.04
64638;HTU21D;51049;45.046;38.950;2022-12-10T08:32:29;13.09;65.98
64638;HTU21D;51049;45.046;38.950;2022-12-10T08:39:20;13.37;65.69
64638;HTU21D;51049;45.046;38.950;2022-12-10T08:46:28;13.60;65.48
64638;HTU21D;51049;45.046;38.950;2022-12-10T08:49:33;13.67;65.39
64638;HTU21D;51049;45.046;38.950;2022-12-10T08:52:32;13.75;65.36
64638;HTU21D;51049;45.046;38.950;2022-12-10T08:55:26;13.80;65.26
64638;HTU21D;51049;45.046;38.950;2022-12-10T09:01:16;13.95;65.14
64638;HTU21D;51049;45.046;38.950;2022-12-10T09:03:43;14.03;65.11
64638;HTU21D;51049;45.046;38.950;2022-12-10T09:13:48;14.35;64.82
64638;HTU21D;51049;45.046;38.950;2022-12-10T09:16:51;14.45;64.70
64638;HTU21D;51049;45.046;38.950;2022-12-10T09:19:29;14.59;64.63
64638;HTU21D;51049;45.046;38.950;2022-12-10T09:25:32;15.32;64.91
64638;HTU21D;51049;45.046;38.950;2022-12-10T09:28:29;16.13;65.92
64638;HTU21D;51049;45.046;38.950;2022-12-10T09:31:39;17.16;66.04
64638;HTU21D;51049;45.046;38.950;2022-12-10T09:34:11;17.94;65.60
64638;HTU21D;51049;45.046;38.950;2022-12-10T09:37:06;18.70;65.30
64638;HTU21D;51049;45.046;38.950;2022-12-10T09:39:33;19.33;64.57
64638;HTU21D;51049;45.046;38.950;2022-12-10T09:53:19;22.28;62.35
64638;HTU21D;51049;45.046;38.950;2022-12-10T09:55:47;22.61;61.74
64638;HTU21D;51049;45.046;38.950;2022-12-10T09:58:19;22.94;60.90
64638;HTU21D;51049;45.046;38.950;2022-12-10T10:00:49;23.29;60.15
64638;HTU21D;51049;45.046;38.950;2022-12-10T10:03:19;23.58;59.51
64638;HTU21D;51049;45.046;38.950;2022-12-10T10:06:04;23.87;59.24
64638;HTU21D;51049;45.046;38.950;2022-12-10T10:08:39;24.02;58.41
64638;HTU21D;51049;45.046;38.950;2022-12-10T10:11:20;24.18;57.86
64638;HTU21D;51049;45.046;38.950;2022-12-10T10:13:54;24.33;57.77
64638;HTU21D;51049;45.046;38.950;2022-12-10T10:21:36;24.78;56.74
64638;HTU21D;51049;45.046;38.950;2022-12-10T10:24:05;25.01;56.12
64638;HTU21D;51049;45.046;38.950;2022-12-10T10:26:32;25.25;55.50
64638;HTU21D;51049;45.046;38.950;2022-12-10T10:29:02;25.51;54.70
64638;HTU21D;51049;45.046;38.950;2022-12-10T10:31:31;25.62;55.42
64638;HTU21D;51049;45.046;38.950;2022-12-10T10:34:04;25.51;54.52
64638;HTU21D;51049;45.046;38.950;2022-12-10T10:36:35;25.44;54.41
64638;HTU21D;51049;45.046;38.950;2022-12-10T10:39:10;25.50;54.21
64638;HTU21D;51049;45.046;38.950;2022-12-10T10:41:39;25.61;53.87
64638;HTU21D;51049;45.046;38.950;2022-12-10T10:44:19;25.78;53.59
64638;HTU21D;51049;45.046;38.950;2022-12-10T10:46:47;25.76;53.29
64638;HTU21D;51049;45.046;38.950;2022-12-10T10:49:29;25.99;52.85
64638;HTU21D;51049;45.046;38.950;2022-12-10T10:52:06;26.35;52.32
64638;HTU21D;51049;45.046;38.950;2022-12-10T10:54:40;26.64;52.06
64638;HTU21D;51049;45.046;38.950;2022-12-10T10:59:46;26.76;51.53
64638;HTU21D;51049;45.046;38.950;2022-12-10T11:05:17;26.38;50.91
64638;HTU21D;51049;45.046;38.950;2022-12-10T11:07:45;25.77;51.27
64638;HTU21D;51049;45.046;38.950;2022-12-10T11:10:23;25.09;51.35
64638;HTU21D;51049;45.046;38.950;2022-12-10T11:12:58;24.75;51.69
64638;HTU21D;51049;45.046;38.950;2022-12-10T11:15:36;24.74;51.67
64638;HTU21D;51049;45.046;38.950;2022-12-10T11:18:19;24.92;51.52
64638;HTU21D;51049;45.046;38.950;2022-12-10T11:20:58;25.09;51.08
64638;HTU21D;51049;45.046;38.950;2022-12-10T11:23:28;25.45;50.44
64638;HTU21D;51049;45.046;38.950;2022-12-10T11:39:39;26.60;48.83
64638;HTU21D;51049;45.046;38.950;2022-12-10T11:51:05;25.28;49.44
64638;HTU21D;51049;45.046;38.950;2022-12-10T11:53:54;24.30;50.25
64638;HTU21D;51049;45.046;38.950;2022-12-10T11:56:40;23.36;50.92
64638;HTU21D;51049;45.046;38.950;2022-12-10T12:02:41;21.68;52.13
64638;HTU21D;51049;45.046;38.950;2022-12-10T12:09:12;20.55;52.64
64638;HTU21D;51049;45.046;38.950;2022-12-10T12:11:12;20.14;52.88
64638;HTU21D;51049;45.046;38.950;2022-12-10T12:14:21;19.81;52.80
64638;HTU21D;51049;45.046;38.950;2022-12-10T12:17:00;19.46;52.86
64638;HTU21D;51049;45.046;38.950;2022-12-10T12:19:39;19.17;52.90
64638;HTU21D;51049;45.046;38.950;2022-12-10T12:22:29;18.95;52.94
64638;HTU21D;51049;45.046;38.950;2022-12-10T12:25:15;18.73;53.01
64638;HTU21D;51049;45.046;38.950;2022-12-10T12:27:53;18.54;52.98
64638;HTU21D;51049;45.046;38.950;2022-12-10T12:30:22;18.37;53.03
64638;HTU21D;51049;45.046;38.950;2022-12-10T12:33:11;18.24;53.00
64638;HTU21D;51049;45.046;38.950;2022-12-10T12:35:49;18.09;53.01
64638;HTU21D;51049;45.046;38.950;2022-12-10T12:46:04;17.63;53.17
64638;HTU21D;51049;45.046;38.950;2022-12-10T12:48:56;17.51;53.21
64638;HTU21D;51049;45.046;38.950;2022-12-10T12:51:42;17.35;53.30
64638;HTU21D;51049;45.046;38.950;2022-12-10T12:54:12;17.22;53.39
64638;HTU21D;51049;45.046;38.950;2022-12-10T12:57:03;17.07;53.49
64638;HTU21D;51049;45.046;38.950;2022-12-10T13:00:03;16.92;53.63
64638;HTU21D;51049;45.046;38.950;2022-12-10T13:03:51;16.75;53.78
64638;HTU21D;51049;45.046;38.950;2022-12-10T13:05:52;16.60;53.88
64638;HTU21D;51049;45.046;38.950;2022-12-10T13:10:57;16.32;54.09
64638;HTU21D;51049;45.046;38.950;2022-12-10T13:16:55;15.97;54.38
64638;HTU21D;51049;45.046;38.950;2022-12-10T13:19:45;15.80;54.51
64638;HTU21D;51049;45.046;38.950;2022-12-10T13:22:43;15.63;54.67
64638;HTU21D;51049;45.046;38.950;2022-12-10T13:25:19;15.48;54.78
64638;HTU21D;51049;45.046;38.950;2022-12-10T13:33:49;15.01;55.13
64638;HTU21D;51049;45.046;38.950;2022-12-10T13:47:54;14.21;55.83
64638;HTU21D;51049;45.046;38.950;2022-12-10T13:57:44;13.74;56.16
64638;HTU21D;51049;45.046;38.950;2022-12-10T14:03:56;13.50;56.26
64638;HTU21D;51049;45.046;38.950;2022-12-10T14:06:32;13.37;56.31
64638;HTU21D;51049;45.046;38.950;2022-12-10T14:11:51;13.14;56.50
64638;HTU21D;51049;45.046;38.950;2022-12-10T14:17:01;12.95;56.69
64638;HTU21D;51049;45.046;38.950;2022-12-10T14:19:33;12.85;56.77
64638;HTU21D;51049;45.046;38.950;2022-12-10T14:22:08;12.75;56.90
64638;HTU21D;51049;45.046;38.950;2022-12-10T14:24:38;12.67;57.00
64638;HTU21D;51049;45.046;38.950;2022-12-10T14:27:19;12.63;57.06
64638;HTU21D;51049;45.046;38.950;2022-12-10T14:32:15;12.53;57.10
64638;HTU21D;51049;45.046;38.950;2022-12-10T14:34:43;12.49;57.13
64638;HTU21D;51049;45.046;38.950;2022-12-10T14:37:13;12.43;57.19
64638;HTU21D;51049;45.046;38.950;2022-12-10T14:39:40;12.36;57.22
64638;HTU21D;51049;45.046;38.950;2022-12-10T14:42:06;12.30;57.29
64638;HTU21D;51049;45.046;38.950;2022-12-10T14:44:39;12.23;57.38
64638;HTU21D;51049;45.046;38.950;2022-12-10T14:47:17;12.16;57.46
64638;HTU21D;51049;45.046;38.950;2022-12-10T14:49:49;12.12;57.47
64638;HTU21D;51049;45.046;38.950;2022-12-10T14:52:21;12.05;57.56
64638;HTU21D;51049;45.046;38.950;2022-12-10T14:54:49;12.00;57.60
64638;HTU21D;51049;45.046;38.950;2022-12-10T14:57:25;11.94;57.67
64638;HTU21D;51049;45.046;38.950;2022-12-10T15:00:14;11.91;57.70
64638;HTU21D;51049;45.046;38.950;2022-12-10T15:02:43;11.87;57.69
64638;HTU21D;51049;45.046;38.950;2022-12-10T15:05:13;11.82;57.71
64638;HTU21D;51049;45.046;38.950;2022-12-10T15:07:41;11.77;57.72
64638;HTU21D;51049;45.046;38.950;2022-12-10T15:10:16;11.72;57.76
64638;HTU21D;51049;45.046;38.950;2022-12-10T15:12:49;11.67;57.84
64638;HTU21D;51049;45.046;38.950;2022-12-10T15:18:04;11.60;57.91
64638;HTU21D;51049;45.046;38.950;2022-12-10T15:20:48;11.54;57.95
64638;HTU21D;51049;45.046;38.950;2022-12-10T15:23:19;11.49;57.96
64638;HTU21D;51049;45.046;38.950;2022-12-10T15:26:04;11.41;58.05
64638;HTU21D;51049;45.046;38.950;2022-12-10T15:28:38;11.36;58.09
64638;HTU21D;51049;45.046;38.950;2022-12-10T15:36:33;11.20;58.22
64638;HTU21D;51049;45.046;38.950;2022-12-10T15:39:12;11.16;58.29
64638;HTU21D;51049;45.046;38.950;2022-12-10T15:44:18;11.10;58.33
64638;HTU21D;51049;45.046;38.950;2022-12-10T15:46:49;11.05;58.35
64638;HTU21D;51049;45.046;38.950;2022-12-10T15:49:26;11.01;58.35
64638;HTU21D;51049;45.046;38.950;2022-12-10T15:51:53;10.96;58.38
64638;HTU21D;51049;45.046;38.950;2022-12-10T15:54:31;10.93;58.43
64638;HTU21D;51049;45.046;38.950;2022-12-10T15:59:44;10.81;58.45
64638;HTU21D;51049;45.046;38.950;2022-12-10T16:05:27;10.69;58.61
64638;HTU21D;51049;45.046;38.950;2022-12-10T16:07:56;10.63;58.64
64638;HTU21D;51049;45.046;38.950;2022-12-10T16:10:25;10.57;58.71
64638;HTU21D;51049;45.046;38.950;2022-12-10T16:13:04;10.52;58.78
64638;HTU21D;51049;45.046;38.950;2022-12-10T16:15:33;10.48;58.83
64638;HTU21D;51049;45.046;38.950;2022-12-10T16:18:04;10.44;58.89
64638;HTU21D;51049;45.046;38.950;2022-12-10T16:20:31;10.41;58.92
64638;HTU21D;51049;45.046;38.950;2022-12-10T16:22:58;10.39;58.94
64638;HTU21D;51049;45.046;38.950;2022-12-10T16:25:28;10.37;58.99
64638;HTU21D;51049;45.046;38.950;2022-12-10T16:27:55;10.35;59.01
64638;HTU21D;51049;45.046;38.950;2022-12-10T16:30:41;10.33;59.06
64638;HTU21D;51049;45.046;38.950;2022-12-10T16:33:08;10.31;59.04
64638;HTU21D;51049;45.046;38.950;2022-12-10T16:35:34;10.30;59.06
64638;HTU21D;51049;45.046;38.950;2022-12-10T16:38:00;10.28;59.08
64638;HTU21D;51049;45.046;38.950;2022-12-10T16:40:27;10.27;59.09
64638;HTU21D;51049;45.046;38.950;2022-12-10T16:42:54;10.25;59.11
64638;HTU21D;51049;45.046;38.950;2022-12-10T16:45:26;10.25;59.15
64638;HTU21D;51049;45.046;38.950;2022-12-10T16:47:52;10.27;59.16
64638;HTU21D;51049;45.046;38.950;2022-12-10T16:50:20;10.28;59.11
64638;HTU21D;51049;45.046;38.950;2022-12-10T16:52:46;10.27;59.09
64638;HTU21D;51049;45.046;38.950;2022-12-10T16:55:21;10.27;59.12
64638;HTU21D;51049;45.046;38.950;2022-12-10T16:57:48;10.28;59.09
64638;HTU21D;51049;45.046;38.950;2022-12-10T17:00:24;10.26;59.12
64638;HTU21D;51049;45.046;38.950;2022-12-10T17:03:24;10.23;59.12
64638;HTU21D;51049;45.046;38.950;2022-12-10T17:06:01;10.21;59.17
64638;HTU21D;51049;45.046;38.950;2022-12-10T17:08:31;10.19;59.17
64638;HTU21D;51049;45.046;38.950;2022-12-10T17:10:58;10.15;59.19
64638;HTU21D;51049;45.046;38.950;2022-12-10T17:13:43;10.10;59.23
64638;HTU21D;51049;45.046;38.950;2022-12-10T17:16:13;10.08;59.29
64638;HTU21D;51049;45.046;38.950;2022-12-10T17:18:40;10.04;59.38
64638;HTU21D;51049;45.046;38.950;2022-12-10T17:21:06;10.01;59.44
64638;HTU21D;51049;45.046;38.950;2022-12-10T17:23:32;9.99;59.51
64638;HTU21D;51049;45.046;38.950;2022-12-10T17:25:58;9.96;59.56
64638;HTU21D;51049;45.046;38.950;2022-12-10T17:28:26;9.93;59.59
64638;HTU21D;51049;45.046;38.950;2022-12-10T17:30:52;9.90;59.64
64638;HTU21D;51049;45.046;38.950;2022-12-10T17:33:23;9.85;59.68
64638;HTU21D;51049;45.046;38.950;2022-12-10T17:35:50;9.83;59.73
64638;HTU21D;51049;45.046;38.950;2022-12-10T17:38:23;9.81;59.75
64638;HTU21D;51049;45.046;38.950;2022-12-10T17:40:50;9.77;59.80
64638;HTU21D;51049;45.046;38.950;2022-12-10T17:43:16;9.75;59.82
64638;HTU21D;51049;45.046;38.950;2022-12-10T17:45:43;9.75;59.85
64638;HTU21D;51049;45.046;38.950;2022-12-10T17:48:14;9.75;59.87
64638;HTU21D;51049;45.046;38.950;2022-12-10T17:50:42;9.74;59.87
64638;HTU21D;51049;45.046;38.950;2022-12-10T17:53:10;9.74;59.90
64638;HTU21D;51049;45.046;38.950;2022-12-10T17:55:41;9.76;59.92
64638;HTU21D;51049;45.046;38.950;2022-12-10T17:58:09;9.77;59.91
64638;HTU21D;51049;45.046;38.950;2022-12-10T18:00:36;9.78;59.89
64638;HTU21D;51049;45.046;38.950;2022-12-10T18:03:03;9.78;59.89
64638;HTU21D;51049;45.046;38.950;2022-12-10T18:05:31;9.79;59.90
64638;HTU21D;51049;45.046;38.950;2022-12-10T18:08:01;9.80;59.90
64638;HTU21D;51049;45.046;38.950;2022-12-10T18:10:31;9.83;59.90
64638;HTU21D;51049;45.046;38.950;2022-12-10T18:13:01;9.84;59.90
64638;HTU21D;51049;45.046;38.950;2022-12-10T18:15:33;9.88;59.88
64638;HTU21D;51049;45.046;38.950;2022-12-10T18:18:01;9.91;59.86
64638;HTU21D;51049;45.046;38.950;2022-12-10T18:20:31;9.94;59.86
64638;HTU21D;51049;45.046;38.950;2022-12-10T18:22:58;9.97;59.89
64638;HTU21D;51049;45.046;38.950;2022-12-10T18:25:26;9.99;59.89
64638;HTU21D;51049;45.046;38.950;2022-12-10T18:27:53;10.03;59.90
64638;HTU21D;51049;45.046;38.950;2022-12-10T18:30:22;10.05;59.90
64638;HTU21D;51049;45.046;38.950;2022-12-10T18:32:49;10.04;59.91
64638;HTU21D;51049;45.046;38.950;2022-12-10T18:35:19;10.04;59.93
64638;HTU21D;51049;45.046;38.950;2022-12-10T18:37:45;10.03;59.96
64638;HTU21D;51049;45.046;38.950;2022-12-10T18:40:19;10.05;60.01
64638;HTU21D;51049;45.046;38.950;2022-12-10T18:42:46;10.04;60.02
64638;HTU21D;51049;45.046;38.950;2022-12-10T18:45:13;10.06;60.04
64638;HTU21D;51049;45.046;38.950;2022-12-10T18:47:39;10.06;60.09
64638;HTU21D;51049;45.046;38.950;2022-12-10T18:50:21;10.08;60.12
64638;HTU21D;51049;45.046;38.950;2022-12-10T18:52:52;10.07;60.12
64638;HTU21D;51049;45.046;38.950;2022-12-10T18:55:23;10.08;60.12
64638;HTU21D;51049;45.046;38.950;2022-12-10T18:57:50;10.09;60.14
64638;HTU21D;51049;45.046;38.950;2022-12-10T19:00:22;10.09;60.16
64638;HTU21D;51049;45.046;38.950;2022-12-10T19:02:49;10.08;60.18
64638;HTU21D;51049;45.046;38.950;2022-12-10T19:05:16;10.07;60.18
64638;HTU21D;51049;45.046;38.950;2022-12-10T19:07:43;10.07;60.21
64638;HTU21D;51049;45.046;38.950;2022-12-10T19:13:01;10.03;60.26
64638;HTU21D;51049;45.046;38.950;2022-12-10T19:15:32;10.01;60.31
64638;HTU21D;51049;45.046;38.950;2022-12-10T19:18:00;10.00;60.35
64638;HTU21D;51049;45.046;38.950;2022-12-10T19:20:32;9.95;60.41
64638;HTU21D;51049;45.046;38.950;2022-12-10T19:23:01;9.95;60.44
64638;HTU21D;51049;45.046;38.950;2022-12-10T19:25:30;9.95;60.46
64638;HTU21D;51049;45.046;38.950;2022-12-10T19:28:00;9.94;60.47
64638;HTU21D;51049;45.046;38.950;2022-12-10T19:30:31;9.92;60.48
64638;HTU21D;51049;45.046;38.950;2022-12-10T19:33:00;9.92;60.50
64638;HTU21D;51049;45.046;38.950;2022-12-10T19:35:26;9.93;60.51
64638;HTU21D;51049;45.046;38.950;2022-12-10T19:37:53;9.93;60.50